Time;durP1;ratioP1;P1;durP2;ratioP2;P2;SDS_P1;SDS_P2;PMS_P1;PMS_P2;Temp;Humidity;BMP_temperature;BMP_pressure;BME280_temperature;BME280_humidity;BME280_pressure;Samples;Min_cycle;Max_cycle;Signal;HPM_P1;HPM_P2
2023/10/28 00:00:45;;;;;;;;;;;;;;;19.84;60.54;97690.03;2090334;28;19929;-69
2023/10/28 00:01:46;;;;;;;;;;;;;;;19.83;60.32;97691.06;2091275;28;19940;-69
2023/10/28 00:02:47;;;;;;;;;;;;;;;19.84;60.49;97690.03;2093527;28;19977;-69
2023/10/28 00:03:48;;;;;;;;;;;;;;;19.85;60.54;97688.16;2092352;28;20094;-69
2023/10/28 00:04:49;;;;;;;;;;;;;;;19.83;60.42;97691.06;2087841;28;19929;-68
2023/10/28 00:05:50;;;;;;;;;;;;;;;19.82;60.76;97692.13;2090030;28;20619;-69
2023/10/28 00:06:52;;;;;;;;;;;;;;;19.81;60.54;97693.19;2092146;28;19928;-68
2023/10/28 00:07:52;;;;;;;;;;;;;;;19.85;60.48;97696.22;2088460;28;19952;-68
2023/10/28 00:08:54;;;;;;;;;;;;;;;19.83;60.79;97696.44;2092428;28;20418;-69
2023/10/28 00:09:54;;;;;;;;;;;;;;;19.83;60.49;97699.13;2090587;28;19930;-68
2023/10/28 00:10:56;;;;;;;;;;;;;;;19.86;60.53;97687.91;2088103;28;20410;-69
2023/10/28 00:11:57;;;;;;;;;;;;;;;19.85;60.38;97688.16;2092981;28;19959;-69
2023/10/28 00:12:59;;;;;;;;;;;;;;;19.83;60.43;97699.13;2093456;28;20294;-69
2023/10/28 00:14:00;;;;;;;;;;;;;;;19.83;60.75;97701.81;2087647;28;19929;-69
2023/10/28 00:15:01;;;;;;;;;;;;;;;19.83;60.57;97701.81;2088973;28;19931;-68
2023/10/28 00:16:05;;;;;;;;;;;;;;;19.82;60.36;97692.13;2090568;28;19924;-69
2023/10/28 00:17:06;;;;;;;;;;;;;;;19.84;60.40;97694.59;2091138;28;19931;-68
2023/10/28 00:18:08;;;;;;;;;;;;;;;19.83;60.35;97699.13;2090221;28;19939;-68
2023/10/28 00:19:09;;;;;;;;;;;;;;;19.83;60.47;97701.81;2087768;28;19932;-68
2023/10/28 00:20:13;;;;;;;;;;;;;;;19.82;60.67;97700.19;2090385;28;20809;-68
2023/10/28 00:21:17;;;;;;;;;;;;;;;19.83;60.63;97695.63;2089456;28;19932;-68
2023/10/28 00:22:19;;;;;;;;;;;;;;;19.83;60.31;97693.75;2091909;28;20569;-69
2023/10/28 00:23:19;;;;;;;;;;;;;;;19.81;60.83;97693.19;2091662;28;20332;-68
2023/10/28 00:24:21;;;;;;;;;;;;;;;19.82;60.38;97691.31;2090037;28;19940;-68
2023/10/28 00:25:25;;;;;;;;;;;;;;;19.84;60.35;97689.22;2088952;28;19940;-69
2023/10/28 00:26:27;;;;;;;;;;;;;;;19.82;60.50;97688.63;2088547;28;20351;-68
2023/10/28 00:27:28;;;;;;;;;;;;;;;19.84;60.38;97690.03;2089147;28;19924;-69
2023/10/28 00:28:33;;;;;;;;;;;;;;;19.83;60.26;97688.38;2088639;28;20391;-69
2023/10/28 00:29:34;;;;;;;;;;;;;;;19.81;60.40;97682.41;2091081;28;20035;-69
2023/10/28 00:30:37;;;;;;;;;;;;;;;19.82;60.71;97677.84;2091347;28;19932;-69
2023/10/28 00:31:40;;;;;;;;;;;;;;;19.80;60.32;97680.75;2088231;28;20388;-69
2023/10/28 00:32:42;;;;;;;;;;;;;;;19.84;60.51;97679.25;2088873;28;19925;-69
2023/10/28 00:33:43;;;;;;;;;;;;;;;19.81;60.41;97677.03;2092470;28;19928;-69
2023/10/28 00:34:44;;;;;;;;;;;;;;;19.81;60.66;97666.28;2089946;28;20399;-69
2023/10/28 00:35:45;;;;;;;;;;;;;;;19.81;60.62;97665.47;2091360;28;19935;-69
2023/10/28 00:36:46;;;;;;;;;;;;;;;19.81;60.38;97674.34;2089233;28;20392;-68
2023/10/28 00:37:48;;;;;;;;;;;;;;;19.82;60.37;97672.47;2090998;28;19939;-69
2023/10/28 00:38:48;;;;;;;;;;;;;;;19.80;60.78;97680.75;2090412;28;19932;-69
2023/10/28 00:39:50;;;;;;;;;;;;;;;19.80;60.46;97683.44;2093232;28;19990;-69
2023/10/28 00:40:51;;;;;;;;;;;;;;;19.83;60.63;97682.97;2090329;28;19939;-69
2023/10/28 00:41:53;;;;;;;;;;;;;;;19.81;60.28;97682.41;2086027;28;20015;-69
2023/10/28 00:42:53;;;;;;;;;;;;;;;19.82;60.69;97675.16;2090349;28;19933;-68
2023/10/28 00:43:55;;;;;;;;;;;;;;;19.82;60.35;97678.66;2088194;28;19938;-69
2023/10/28 00:44:55;;;;;;;;;;;;;;;19.82;60.63;97681.34;2089690;28;19932;-68
2023/10/28 00:45:56;;;;;;;;;;;;;;;19.78;60.60;97680.19;2090048;28;20406;-68
2023/10/28 00:47:02;;;;;;;;;;;;;;;19.80;60.43;97685.34;2087423;28;19971;-69
2023/10/28 00:48:02;;;;;;;;;;;;;;;19.81;60.61;97695.88;2085646;28;19940;-68
2023/10/28 00:49:05;;;;;;;;;;;;;;;19.82;60.39;97694.81;2090110;28;19935;-68
2023/10/28 00:50:09;;;;;;;;;;;;;;;19.83;60.44;97698.31;2091377;28;19928;-68
2023/10/28 00:51:10;;;;;;;;;;;;;;;19.81;60.57;97701.25;2085855;28;19932;-69
2023/10/28 00:52:10;;;;;;;;;;;;;;;19.80;60.34;97704.16;2092761;28;19924;-68
2023/10/28 00:53:12;;;;;;;;;;;;;;;19.79;60.60;97716.81;2091246;28;19935;-68
2023/10/28 00:54:13;;;;;;;;;;;;;;;19.80;60.29;97707.66;2090548;28;19936;-68
2023/10/28 00:55:14;;;;;;;;;;;;;;;19.81;60.46;97706.63;2088940;28;19935;-69
2023/10/28 00:56:18;;;;;;;;;;;;;;;19.81;60.44;97706.63;2090516;28;20520;-69
2023/10/28 00:57:19;;;;;;;;;;;;;;;19.80;60.63;97710.34;2090831;28;20393;-69
2023/10/28 00:58:22;;;;;;;;;;;;;;;19.80;60.44;97710.34;2090897;28;20019;-67
2023/10/28 00:59:23;;;;;;;;;;;;;;;19.81;60.42;97712.03;2090773;28;19928;-68
2023/10/28 01:00:25;;;;;;;;;;;;;;;19.82;60.59;97710.97;2090174;28;19925;-68
2023/10/28 01:01:25;;;;;;;;;;;;;;;19.82;60.29;97707.44;2090542;28;19932;-68
2023/10/28 01:02:28;;;;;;;;;;;;;;;19.82;60.61;97712.84;2090582;28;20337;-69
2023/10/28 01:03:30;;;;;;;;;;;;;;;19.82;60.42;97705.56;2089718;28;20304;-68
2023/10/28 01:04:32;;;;;;;;;;;;;;;19.82;60.58;97702.88;2089888;28;19933;-69
2023/10/28 01:05:34;;;;;;;;;;;;;;;19.84;60.25;97699.97;2088775;28;19932;-69
2023/10/28 01:06:35;;;;;;;;;;;;;;;19.83;60.27;97704.50;2089492;28;20434;-69
2023/10/28 01:07:36;;;;;;;;;;;;;;;19.81;60.26;97706.63;2091916;28;20410;-68
2023/10/28 01:08:37;;;;;;;;;;;;;;;19.81;60.32;97698.56;2089960;28;19928;-69
2023/10/28 01:09:44;;;;;;;;;;;;;;;19.80;60.58;97702.28;2088005;28;19929;-69
2023/10/28 01:10:45;;;;;;;;;;;;;;;19.82;60.72;97704.75;2090869;28;19925;-68
2023/10/28 01:11:47;;;;;;;;;;;;;;;19.82;60.32;97705.56;2089013;28;19935;-69
2023/10/28 01:12:48;;;;;;;;;;;;;;;19.79;60.39;97703.34;2091198;28;19936;-69
2023/10/28 01:13:48;;;;;;;;;;;;;;;19.78;60.66;97707.09;2091038;28;19967;-68
2023/10/28 01:14:50;;;;;;;;;;;;;;;19.80;60.29;97715.75;2089644;28;19929;-68
2023/10/28 01:15:50;;;;;;;;;;;;;;;19.77;60.64;97715.41;2091553;28;19932;-69
2023/10/28 01:16:52;;;;;;;;;;;;;;;19.78;60.35;97703.56;2091231;28;19956;-69
2023/10/28 01:17:54;;;;;;;;;;;;;;;19.79;60.65;97705.22;2089761;28;20407;-69
2023/10/28 01:18:56;;;;;;;;;;;;;;;19.78;60.54;97695.50;2088580;28;20425;-68
2023/10/28 01:19:57;;;;;;;;;;;;;;;19.77;60.36;97699.25;2089165;28;20027;-69
2023/10/28 01:20:57;;;;;;;;;;;;;;;19.76;60.55;97698.44;2088951;28;19940;-69
2023/10/28 01:22:00;;;;;;;;;;;;;;;19.79;60.32;97691.78;2085566;28;20370;-69
2023/10/28 01:23:01;;;;;;;;;;;;;;;19.79;60.19;97687.22;2093145;28;19924;-68
2023/10/28 01:24:03;;;;;;;;;;;;;;;19.79;60.28;97691.78;2090472;28;19924;-69
2023/10/28 01:25:04;;;;;;;;;;;;;;;19.78;60.68;97690.97;2090751;28;19928;-69
2023/10/28 01:26:05;;;;;;;;;;;;;;;19.78;60.46;97688.28;2088839;28;19975;-69
2023/10/28 01:27:09;;;;;;;;;;;;;;;19.78;60.49;97690.97;2087981;28;20324;-68
2023/10/28 01:28:11;;;;;;;;;;;;;;;19.78;60.54;97684.75;2092710;28;19924;-68
2023/10/28 01:29:12;;;;;;;;;;;;;;;19.78;60.58;97688.28;2088879;28;19924;-69
2023/10/28 01:30:16;;;;;;;;;;;;;;;19.79;60.26;97687.22;2088186;28;19929;-68
2023/10/28 01:31:18;;;;;;;;;;;;;;;19.79;60.23;97679.13;2087833;28;20771;-69
2023/10/28 01:32:19;;;;;;;;;;;;;;;19.79;60.65;97687.22;2086344;28;20627;-69
2023/10/28 01:33:21;;;;;;;;;;;;;;;19.78;60.52;97684.75;2083081;28;20273;-69
2023/10/28 01:34:22;;;;;;;;;;;;;;;19.79;60.43;97687.22;2090763;28;19929;-69
2023/10/28 01:35:24;;;;;;;;;;;;;;;19.78;60.54;97693.66;2089351;28;19987;-68
2023/10/28 01:36:25;;;;;;;;;;;;;;;19.78;60.69;97679.34;2089833;28;21386;-68
2023/10/28 01:37:27;;;;;;;;;;;;;;;19.79;60.26;97678.31;2089894;28;20763;-69
2023/10/28 01:38:29;;;;;;;;;;;;;;;19.78;60.54;97679.34;2090541;28;19960;-68
2023/10/28 01:39:30;;;;;;;;;;;;;;;19.78;60.56;97673.97;2087970;28;20399;-69
2023/10/28 01:40:31;;;;;;;;;;;;;;;19.76;60.48;97681.47;2089230;28;19933;-68
2023/10/28 01:41:32;;;;;;;;;;;;;;;19.78;60.54;97690.97;2090416;28;20003;-69
2023/10/28 01:42:32;;;;;;;;;;;;;;;19.77;60.70;97692.00;2090738;28;20444;-68
2023/10/28 01:43:34;;;;;;;;;;;;;;;19.77;60.45;97689.31;2088928;28;19964;-69
2023/10/28 01:44:35;;;;;;;;;;;;;;;19.79;60.68;97691.78;2089492;28;21744;-68
2023/10/28 01:45:36;;;;;;;;;;;;;;;19.77;60.32;97686.63;2089953;28;19931;-68
2023/10/28 01:46:37;;;;;;;;;;;;;;;19.75;60.48;97685.22;2089468;28;19990;-69
2023/10/28 01:47:39;;;;;;;;;;;;;;;19.75;60.77;97688.75;2082034;28;20030;-69
2023/10/28 01:48:41;;;;;;;;;;;;;;;19.78;60.72;97690.13;2088407;28;20311;-68
2023/10/28 01:49:43;;;;;;;;;;;;;;;19.79;60.30;97687.22;2090945;28;19929;-69
2023/10/28 01:50:44;;;;;;;;;;;;;;;19.79;60.53;97681.00;2089562;28;19925;-69
2023/10/28 01:51:45;;;;;;;;;;;;;;;19.77;60.49;97680.41;2087999;28;20006;-69
2023/10/28 01:52:47;;;;;;;;;;;;;;;19.77;60.60;97685.81;2090433;28;19936;-69
2023/10/28 01:53:49;;;;;;;;;;;;;;;19.73;60.54;97677.38;2088320;28;19988;-69
2023/10/28 01:54:51;;;;;;;;;;;;;;;19.75;60.40;97686.06;2090284;28;19924;-69
2023/10/28 01:55:53;;;;;;;;;;;;;;;19.75;60.83;97675.28;2087820;28;20035;-68
2023/10/28 01:56:54;;;;;;;;;;;;;;;19.77;60.72;97683.13;2088893;28;19932;-69
2023/10/28 01:57:55;;;;;;;;;;;;;;;19.75;60.48;97677.97;2089183;28;19924;-69
2023/10/28 01:58:56;;;;;;;;;;;;;;;19.74;60.68;97678.19;2089151;28;20276;-69
2023/10/28 01:59:59;;;;;;;;;;;;;;;19.74;60.46;97681.72;2086626;28;19935;-68
2023/10/28 02:01:00;;;;;;;;;;;;;;;19.74;60.61;97679.00;2089200;28;19928;-69
2023/10/28 02:02:02;;;;;;;;;;;;;;;19.75;60.68;97682.50;2087172;28;19929;-68
2023/10/28 02:03:03;;;;;;;;;;;;;;;19.75;60.74;97672.59;2089479;28;20405;-69
2023/10/28 02:04:06;;;;;;;;;;;;;;;19.74;60.90;97673.63;2089226;28;19978;-68
2023/10/28 02:05:08;;;;;;;;;;;;;;;19.73;60.68;97674.69;2090136;28;19935;-67
2023/10/28 02:06:09;;;;;;;;;;;;;;;19.72;60.58;97681.13;2086372;28;19930;-68
2023/10/28 02:07:10;;;;;;;;;;;;;;;19.75;60.60;97679.81;2088825;28;19925;-69
2023/10/28 02:08:13;;;;;;;;;;;;;;;19.74;60.50;97681.72;2088164;28;20015;-68
2023/10/28 02:09:14;;;;;;;;;;;;;;;19.74;60.76;97676.31;2085902;28;19932;-68
2023/10/28 02:10:15;;;;;;;;;;;;;;;19.74;60.63;97675.50;2087969;28;20013;-69
2023/10/28 02:11:16;;;;;;;;;;;;;;;19.75;60.72;97675.28;2087405;28;19932;-68
2023/10/28 02:12:17;;;;;;;;;;;;;;;19.74;60.53;97675.50;2091144;28;19932;-68
2023/10/28 02:13:18;;;;;;;;;;;;;;;19.75;60.50;97675.28;2087701;28;19940;-69
2023/10/28 02:14:20;;;;;;;;;;;;;;;19.76;60.63;97673.41;2090366;28;19929;-68
2023/10/28 02:15:21;;;;;;;;;;;;;;;19.73;60.55;97672.00;2087203;28;19978;-69
2023/10/28 02:16:22;;;;;;;;;;;;;;;19.74;60.93;97679.00;2087866;28;19924;-68
2023/10/28 02:17:23;;;;;;;;;;;;;;;19.73;60.54;97668.50;2087880;28;19928;-68
2023/10/28 02:18:24;;;;;;;;;;;;;;;19.75;60.56;97674.44;2089297;28;19971;-69
2023/10/28 02:19:26;;;;;;;;;;;;;;;19.75;60.84;97679.81;2090692;28;19933;-69
2023/10/28 02:20:29;;;;;;;;;;;;;;;19.75;60.82;97675.28;2089511;28;19925;-69
2023/10/28 02:21:29;;;;;;;;;;;;;;;19.76;60.60;97684.19;2089487;28;20414;-69
2023/10/28 02:22:31;;;;;;;;;;;;;;;19.77;60.54;97685.81;2091265;28;19932;-69
2023/10/28 02:23:33;;;;;;;;;;;;;;;19.77;60.62;97678.53;2090829;28;19932;-69
2023/10/28 02:24:35;;;;;;;;;;;;;;;19.75;60.78;97677.97;2090328;28;19943;-68
2023/10/28 02:25:35;;;;;;;;;;;;;;;19.74;60.48;97683.59;2092934;28;19936;-69
2023/10/28 02:26:37;;;;;;;;;;;;;;;19.74;61.03;97689.78;2088131;28;20020;-69
2023/10/28 02:27:38;;;;;;;;;;;;;;;19.74;60.58;97673.63;2088367;28;19940;-68
2023/10/28 02:28:39;;;;;;;;;;;;;;;19.75;60.59;97679.81;2090039;28;19979;-69
2023/10/28 02:29:40;;;;;;;;;;;;;;;19.75;60.96;97680.66;2086390;28;19924;-69
2023/10/28 02:30:42;;;;;;;;;;;;;;;19.75;60.52;97682.50;2088291;28;20383;-69
2023/10/28 02:31:43;;;;;;;;;;;;;;;19.72;60.89;97686.50;2086102;28;19935;-69
2023/10/28 02:32:44;;;;;;;;;;;;;;;19.74;60.68;97684.41;2086250;28;20027;-69
2023/10/28 02:33:45;;;;;;;;;;;;;;;19.74;60.62;97684.41;2089132;28;20016;-68
2023/10/28 02:34:46;;;;;;;;;;;;;;;19.76;60.62;97686.88;2091443;28;20288;-68
2023/10/28 02:35:47;;;;;;;;;;;;;;;19.78;60.57;97690.97;2089070;28;19929;-68
2023/10/28 02:36:50;;;;;;;;;;;;;;;19.77;60.84;97691.19;2088014;28;19968;-68
2023/10/28 02:37:50;;;;;;;;;;;;;;;19.75;60.56;97690.59;2090201;28;19935;-68
2023/10/28 02:38:52;;;;;;;;;;;;;;;19.74;60.61;97692.47;2090826;28;19958;-68
2023/10/28 02:39:54;;;;;;;;;;;;;;;19.73;60.65;97687.34;2088022;28;20022;-68
2023/10/28 02:40:54;;;;;;;;;;;;;;;19.71;60.74;97684.06;2086206;28;20071;-68
2023/10/28 02:41:56;;;;;;;;;;;;;;;19.71;60.72;97687.56;2084575;28;19924;-69
2023/10/28 02:42:57;;;;;;;;;;;;;;;19.74;60.93;97688.97;2090474;28;19924;-68
2023/10/28 02:43:59;;;;;;;;;;;;;;;19.74;60.92;97689.78;2089257;28;20035;-68
2023/10/28 02:44:59;;;;;;;;;;;;;;;19.77;60.54;97683.13;2090056;28;19932;-68
2023/10/28 02:46:01;;;;;;;;;;;;;;;19.75;60.72;97683.38;2086549;28;20028;-69
2023/10/28 02:47:01;;;;;;;;;;;;;;;19.78;60.75;97685.59;2086901;28;20395;-69
2023/10/28 02:48:03;;;;;;;;;;;;;;;19.77;60.89;97680.41;2084821;28;20024;-69
2023/10/28 02:49:04;;;;;;;;;;;;;;;19.75;60.61;97677.97;2087696;28;20338;-68
2023/10/28 02:50:06;;;;;;;;;;;;;;;19.74;60.69;97684.41;2090567;28;19936;-68
2023/10/28 02:51:07;;;;;;;;;;;;;;;19.74;60.99;97667.44;2087539;28;20356;-68
2023/10/28 02:52:08;;;;;;;;;;;;;;;19.74;60.70;97673.63;2086414;28;19971;-68
2023/10/28 02:53:09;;;;;;;;;;;;;;;19.73;60.68;97672.00;2087603;28;19928;-68
2023/10/28 02:54:13;;;;;;;;;;;;;;;19.74;60.63;97668.25;2081283;28;19979;-68
2023/10/28 02:55:15;;;;;;;;;;;;;;;19.74;60.66;97672.81;2085219;28;20019;-68
2023/10/28 02:56:16;;;;;;;;;;;;;;;19.73;60.76;97669.31;2085557;28;19929;-69
2023/10/28 02:57:17;;;;;;;;;;;;;;;19.73;60.72;97672.00;2083722;28;20391;-68
2023/10/28 02:58:18;;;;;;;;;;;;;;;19.74;60.63;97670.94;2089693;28;19932;-68
2023/10/28 02:59:19;;;;;;;;;;;;;;;19.75;60.76;97677.97;2087445;28;20376;-69
2023/10/28 03:00:22;;;;;;;;;;;;;;;19.77;60.90;97673.16;2090034;28;20792;-68
2023/10/28 03:01:23;;;;;;;;;;;;;;;19.77;60.62;97673.16;2090248;28;19932;-69
2023/10/28 03:02:24;;;;;;;;;;;;;;;19.74;60.51;97673.63;2087041;28;20402;-69
2023/10/28 03:03:25;;;;;;;;;;;;;;;19.79;60.87;97676.44;2087328;28;19932;-68
2023/10/28 03:04:26;;;;;;;;;;;;;;;19.78;60.75;97676.66;2088680;28;19929;-68
2023/10/28 03:05:27;;;;;;;;;;;;;;;19.75;60.67;97677.97;2086065;28;20303;-68
2023/10/28 03:06:28;;;;;;;;;;;;;;;19.72;60.78;97670.34;2089379;28;19974;-69
2023/10/28 03:07:29;;;;;;;;;;;;;;;19.72;61.13;97675.72;2090229;28;20289;-68
2023/10/28 03:08:31;;;;;;;;;;;;;;;19.73;60.71;97669.31;2089326;28;19938;-68
2023/10/28 03:09:33;;;;;;;;;;;;;;;19.73;60.76;97665.81;2088694;28;19931;-68
2023/10/28 03:10:34;;;;;;;;;;;;;;;19.73;60.68;97674.69;2088046;28;19932;-69
2023/10/28 03:11:35;;;;;;;;;;;;;;;19.72;60.73;97667.66;2089207;28;19924;-68
2023/10/28 03:12:37;;;;;;;;;;;;;;;19.72;61.13;97670.34;2089112;28;19935;-69
2023/10/28 03:13:38;;;;;;;;;;;;;;;19.73;60.86;97666.63;2087186;28;20407;-69
2023/10/28 03:14:40;;;;;;;;;;;;;;;19.74;60.67;97670.13;2086025;28;19932;-69
2023/10/28 03:15:40;;;;;;;;;;;;;;;19.76;60.50;97671.53;2084923;28;19924;-68
2023/10/28 03:16:44;;;;;;;;;;;;;;;19.74;61.00;97662.88;2089045;28;19929;-69
2023/10/28 03:17:45;;;;;;;;;;;;;;;19.74;60.58;97667.44;2089244;28;20057;-68
2023/10/28 03:18:46;;;;;;;;;;;;;;;19.75;61.04;97671.75;2088240;28;21154;-69
2023/10/28 03:19:47;;;;;;;;;;;;;;;19.74;60.71;97673.63;2086102;28;19933;-69
2023/10/28 03:20:47;;;;;;;;;;;;;;;19.77;60.81;97672.34;2088424;28;19932;-69
2023/10/28 03:21:49;;;;;;;;;;;;;;;19.74;60.83;97670.94;2087759;28;20654;-69
2023/10/28 03:22:50;;;;;;;;;;;;;;;19.76;60.93;97681.47;2087996;28;19932;-69
2023/10/28 03:23:52;;;;;;;;;;;;;;;19.75;60.98;97677.97;2087972;28;19924;-69
2023/10/28 03:24:54;;;;;;;;;;;;;;;19.75;60.70;97671.75;2091537;28;19936;-68
2023/10/28 03:25:56;;;;;;;;;;;;;;;19.75;60.61;97675.28;2090377;28;19928;-69
2023/10/28 03:26:56;;;;;;;;;;;;;;;19.74;60.68;97679.00;2087459;28;20019;-68
2023/10/28 03:28:00;;;;;;;;;;;;;;;19.75;60.65;97683.38;2086873;28;19955;-69
2023/10/28 03:29:00;;;;;;;;;;;;;;;19.73;60.95;97682.78;2090247;28;19940;-69
2023/10/28 03:30:02;;;;;;;;;;;;;;;19.72;61.12;97683.00;2086553;28;19976;-68
2023/10/28 03:31:06;;;;;;;;;;;;;;;19.72;60.70;97683.81;2087932;28;19924;-68
2023/10/28 03:32:08;;;;;;;;;;;;;;;19.73;61.00;97672.00;2087989;28;19964;-68
2023/10/28 03:33:08;;;;;;;;;;;;;;;19.73;60.63;97682.78;2088306;28;19956;-68
2023/10/28 03:34:10;;;;;;;;;;;;;;;19.73;61.06;97684.66;2084513;28;19936;-68
2023/10/28 03:35:10;;;;;;;;;;;;;;;19.73;60.79;97679.25;2086617;28;19925;-68
2023/10/28 03:36:12;;;;;;;;;;;;;;;19.71;60.96;97682.19;2083870;28;20027;-68
2023/10/28 03:37:12;;;;;;;;;;;;;;;19.71;60.77;97682.19;2088207;28;19924;-69
2023/10/28 03:38:14;;;;;;;;;;;;;;;19.73;60.72;97682.78;2086037;28;19939;-68
2023/10/28 03:39:15;;;;;;;;;;;;;;;19.74;60.59;97689.78;2090627;28;19978;-69
2023/10/28 03:40:17;;;;;;;;;;;;;;;19.74;60.80;97695.16;2090196;28;19925;-68
2023/10/28 03:41:18;;;;;;;;;;;;;;;19.73;60.75;97693.53;2085362;28;19929;-68
2023/10/28 03:42:19;;;;;;;;;;;;;;;19.74;61.07;97695.16;2087309;28;19928;-68
2023/10/28 03:43:21;;;;;;;;;;;;;;;19.72;60.72;97699.94;2084541;28;19933;-69
2023/10/28 03:44:22;;;;;;;;;;;;;;;19.73;60.82;97690.03;2086308;28;19924;-68
2023/10/28 03:45:23;;;;;;;;;;;;;;;19.74;60.94;97688.97;2086953;28;20561;-69
2023/10/28 03:46:25;;;;;;;;;;;;;;;19.71;60.99;97700.19;2086918;28;19925;-69
2023/10/28 03:47:27;;;;;;;;;;;;;;;19.74;61.08;97705.91;2084446;28;19933;-68
2023/10/28 03:48:28;;;;;;;;;;;;;;;19.74;60.88;97710.50;2089848;28;19932;-68
2023/10/28 03:49:29;;;;;;;;;;;;;;;19.74;60.60;97705.91;2087717;28;19978;-68
2023/10/28 03:50:30;;;;;;;;;;;;;;;19.74;60.52;97710.50;2086928;28;20396;-68
2023/10/28 03:51:31;;;;;;;;;;;;;;;19.73;60.74;97709.66;2089176;28;19932;-69
2023/10/28 03:52:33;;;;;;;;;;;;;;;19.73;60.67;97704.28;2085299;28;19935;-68
2023/10/28 03:53:34;;;;;;;;;;;;;;;19.72;60.95;97705.31;2086678;28;20031;-69
2023/10/28 03:54:35;;;;;;;;;;;;;;;19.72;60.85;97702.63;2088600;28;19924;-68
2023/10/28 03:55:37;;;;;;;;;;;;;;;19.74;60.67;97702.41;2085587;28;19940;-69
2023/10/28 03:56:39;;;;;;;;;;;;;;;19.77;60.91;97707.31;2084809;28;20009;-68
2023/10/28 03:57:40;;;;;;;;;;;;;;;19.74;60.94;97705.09;2085345;28;19932;-69
2023/10/28 03:58:42;;;;;;;;;;;;;;;19.75;60.79;97706.72;2085012;28;19924;-69
2023/10/28 03:59:45;;;;;;;;;;;;;;;19.77;60.96;97716.22;2085740;28;19933;-68
2023/10/28 04:00:47;;;;;;;;;;;;;;;19.78;60.62;97717.03;2085826;28;19971;-69
2023/10/28 04:01:47;;;;;;;;;;;;;;;19.77;60.68;97721.59;2086897;28;20431;-69
2023/10/28 04:02:49;;;;;;;;;;;;;;;19.73;61.05;97717.75;2088895;28;19933;-68
2023/10/28 04:03:50;;;;;;;;;;;;;;;19.75;60.94;97712.97;2086010;28;19936;-69
2023/10/28 04:04:52;;;;;;;;;;;;;;;19.73;60.88;97715.06;2086636;28;19932;-68
2023/10/28 04:05:53;;;;;;;;;;;;;;;19.72;60.86;97702.63;2088782;28;19933;-68
2023/10/28 04:06:55;;;;;;;;;;;;;;;19.74;60.71;97705.09;2082551;28;21550;-69
2023/10/28 04:07:56;;;;;;;;;;;;;;;19.74;60.94;97699.72;2085058;28;20446;-68
2023/10/28 04:08:58;;;;;;;;;;;;;;;19.71;60.71;97695.63;2087005;28;19976;-69
2023/10/28 04:10:04;;;;;;;;;;;;;;;19.73;61.02;97701.59;2087994;28;19993;-69
2023/10/28 04:11:07;;;;;;;;;;;;;;;19.73;60.61;97709.66;2086965;28;22202;-68
2023/10/28 04:12:08;;;;;;;;;;;;;;;19.74;60.91;97705.09;2087415;28;20469;-68
2023/10/28 04:13:12;;;;;;;;;;;;;;;19.73;60.95;97706.97;2085732;28;20556;-68
2023/10/28 04:14:13;;;;;;;;;;;;;;;19.73;60.66;97703.47;2087320;28;19925;-69
2023/10/28 04:15:16;;;;;;;;;;;;;;;19.73;60.85;97706.16;2086852;28;19968;-69
2023/10/28 04:16:16;;;;;;;;;;;;;;;19.73;60.67;97701.59;2084552;28;20407;-68
2023/10/28 04:17:18;;;;;;;;;;;;;;;19.71;60.84;97706.38;2087597;28;20035;-69
2023/10/28 04:18:19;;;;;;;;;;;;;;;19.72;60.88;97699.94;2084276;28;20357;-68
2023/10/28 04:19:21;;;;;;;;;;;;;;;19.72;60.97;97702.63;2086646;28;19928;-68
2023/10/28 04:20:21;;;;;;;;;;;;;;;19.71;60.97;97708.25;2091036;28;19993;-68
2023/10/28 04:21:23;;;;;;;;;;;;;;;19.72;60.69;97705.31;2086498;28;20057;-68
2023/10/28 04:22:24;;;;;;;;;;;;;;;19.71;60.77;97702.88;2089496;28;20303;-68
2023/10/28 04:23:25;;;;;;;;;;;;;;;19.73;60.85;97700.78;2090344;28;19928;-67
2023/10/28 04:24:26;;;;;;;;;;;;;;;19.73;60.58;97698.09;2088884;28;19939;-67
2023/10/28 04:25:28;;;;;;;;;;;;;;;19.75;60.90;97699.50;2090206;28;20395;-68
2023/10/28 04:26:30;;;;;;;;;;;;;;;19.74;60.69;97710.50;2087738;28;19925;-67
2023/10/28 04:27:31;;;;;;;;;;;;;;;19.72;60.95;97702.63;2089501;28;19956;-68
2023/10/28 04:28:32;;;;;;;;;;;;;;;19.72;60.76;97713.41;2089095;28;19924;-67
2023/10/28 04:29:34;;;;;;;;;;;;;;;19.69;60.89;97711.16;2089190;28;20011;-67
2023/10/28 04:30:35;;;;;;;;;;;;;;;19.73;60.94;97711.56;2091005;28;19929;-68
2023/10/28 04:31:36;;;;;;;;;;;;;;;19.72;60.86;97709.88;2087100;28;19967;-68
2023/10/28 04:32:37;;;;;;;;;;;;;;;19.73;60.54;97717.75;2090187;28;19925;-68
2023/10/28 04:33:38;;;;;;;;;;;;;;;19.73;60.58;97714.25;2092983;28;19963;-67
2023/10/28 04:34:40;;;;;;;;;;;;;;;19.73;60.91;97720.44;2090222;28;20484;-68
2023/10/28 04:35:43;;;;;;;;;;;;;;;19.72;60.77;97723.34;2086170;28;19933;-68
2023/10/28 04:36:44;;;;;;;;;;;;;;;19.72;60.83;97724.16;2087559;28;19925;-68
2023/10/28 04:37:45;;;;;;;;;;;;;;;19.72;60.68;97717.97;2090161;28;19932;-68
2023/10/28 04:38:46;;;;;;;;;;;;;;;19.71;60.95;97713.66;2088104;28;19928;-68
2023/10/28 04:39:47;;;;;;;;;;;;;;;19.70;60.98;97720.91;2086254;28;19935;-67
2023/10/28 04:40:50;;;;;;;;;;;;;;;19.70;60.74;97726.28;2085749;28;19929;-68
2023/10/28 04:41:52;;;;;;;;;;;;;;;19.70;60.95;97723.59;2090375;28;19929;-68
2023/10/28 04:42:54;;;;;;;;;;;;;;;19.72;60.43;97729.53;2092482;28;19928;-68
2023/10/28 04:43:54;;;;;;;;;;;;;;;19.73;60.75;97730.38;2087646;28;20414;-67
2023/10/28 04:44:56;;;;;;;;;;;;;;;19.71;60.48;97727.91;2091337;28;19932;-68
2023/10/28 04:45:56;;;;;;;;;;;;;;;19.71;60.54;97727.91;2087104;28;19935;-68
2023/10/28 04:46:58;;;;;;;;;;;;;;;19.72;60.51;97731.41;2088573;28;19934;-68
2023/10/28 04:47:58;;;;;;;;;;;;;;;19.72;60.56;97724.16;2090118;28;19940;-68
2023/10/28 04:49:00;;;;;;;;;;;;;;;19.74;60.69;97727.44;2086602;28;20455;-68
2023/10/28 04:50:00;;;;;;;;;;;;;;;19.69;60.61;97727.31;2092179;28;19933;-68
2023/10/28 04:51:03;;;;;;;;;;;;;;;19.70;60.54;97725.47;2086117;28;19924;-68
2023/10/28 04:52:04;;;;;;;;;;;;;;;19.69;60.62;97719.25;2088616;28;19967;-68
2023/10/28 04:53:05;;;;;;;;;;;;;;;19.69;60.88;97721.94;2087961;28;19932;-68
2023/10/28 04:54:06;;;;;;;;;;;;;;;19.68;60.80;97725.69;2085441;28;20399;-67
2023/10/28 04:55:07;;;;;;;;;;;;;;;19.68;60.60;97727.56;2089423;28;19932;-67
2023/10/28 04:56:08;;;;;;;;;;;;;;;19.68;60.97;97731.06;2087494;28;20716;-67
2023/10/28 04:57:11;;;;;;;;;;;;;;;19.70;60.91;97739.75;2090284;28;20067;-67
2023/10/28 04:58:12;;;;;;;;;;;;;;;19.69;60.52;97732.69;2091846;28;20560;-67
2023/10/28 04:59:13;;;;;;;;;;;;;;;19.68;60.57;97735.63;2090381;28;19933;-67
2023/10/28 05:00:16;;;;;;;;;;;;;;;19.69;60.84;97735.38;2090842;28;19940;-67
2023/10/28 05:01:18;;;;;;;;;;;;;;;19.68;60.88;97739.13;2088526;28;20273;-67
2023/10/28 05:02:19;;;;;;;;;;;;;;;19.70;60.59;97730.84;2089354;28;19929;-68
2023/10/28 05:03:20;;;;;;;;;;;;;;;19.68;60.54;97728.38;2087144;28;20023;-67
2023/10/28 05:04:23;;;;;;;;;;;;;;;19.67;60.79;97733.97;2092263;28;19951;-67
2023/10/28 05:05:25;;;;;;;;;;;;;;;19.66;60.68;97730.47;2089790;28;19925;-67
2023/10/28 05:06:26;;;;;;;;;;;;;;;19.68;60.64;97733.75;2090885;28;20323;-67
2023/10/28 05:07:27;;;;;;;;;;;;;;;19.69;60.93;97738.06;2090509;28;19971;-67
2023/10/28 05:08:28;;;;;;;;;;;;;;;19.67;60.93;97731.28;2092228;28;19925;-67
2023/10/28 05:09:30;;;;;;;;;;;;;;;19.69;60.96;97734.56;2091577;28;19982;-68
2023/10/28 05:10:31;;;;;;;;;;;;;;;19.69;60.66;97734.56;2091802;28;19932;-67
2023/10/28 05:11:32;;;;;;;;;;;;;;;19.70;60.94;97742.44;2088337;28;19948;-67
2023/10/28 05:12:34;;;;;;;;;;;;;;;19.69;60.53;97743.47;2092347;28;19932;-68
2023/10/28 05:13:35;;;;;;;;;;;;;;;19.67;60.87;97742.91;2091057;28;19932;-68
2023/10/28 05:14:36;;;;;;;;;;;;;;;19.68;60.80;97743.72;2090284;28;19933;-68
2023/10/28 05:15:38;;;;;;;;;;;;;;;19.68;60.42;97743.72;2091719;28;19929;-67
2023/10/28 05:16:40;;;;;;;;;;;;;;;19.69;60.66;97743.47;2087565;28;19962;-67
2023/10/28 05:17:40;;;;;;;;;;;;;;;19.68;60.74;97736.44;2086590;28;19940;-67
2023/10/28 05:18:42;;;;;;;;;;;;;;;19.69;60.51;97739.97;2092241;28;19974;-67
2023/10/28 05:19:43;;;;;;;;;;;;;;;19.69;60.73;97732.69;2089396;28;19928;-68
2023/10/28 05:20:44;;;;;;;;;;;;;;;19.68;60.62;97738.31;2087596;28;20425;-68